Time;durP1;ratioP1;P1;durP2;ratioP2;P2;SDS_P1;SDS_P2;PMS_P1;PMS_P2;Temp;Humidity;BMP_temperature;BMP_pressure;BME280_temperature;BME280_humidity;BME280_pressure;Samples;Min_cycle;Max_cycle;Signal;HPM_P1;HPM_P2
2022/02/10 00:15:56;;;;;;;5.25;3.53;;;;;;;2.81;100.00;99228.59;4928472;29;20416;-57
2022/02/10 00:19:15;;;;;;;7.78;4.07;;;;;;;3.31;100.00;99259.19;4918018;29;20104;-54
2022/02/10 00:22:33;;;;;;;7.93;4.55;;;;;;;3.41;100.00;99260.06;4910254;29;20132;-60
2022/02/10 00:34:25;;;;;;;11.65;6.43;;;;;;;3.15;100.00;99253.94;4892427;29;20071;-60
2022/02/10 00:37:12;;;;;;;10.98;6.75;;;;;;;3.03;100.00;99256.53;4890469;29;20079;-55
2022/02/10 00:40:07;;;;;;;11.50;6.53;;;;;;;2.87;100.00;99253.03;4891764;29;20116;-54
2022/02/10 00:42:53;;;;;;;11.63;6.38;;;;;;;2.84;100.00;99247.78;4891239;29;20122;-54
2022/02/10 00:45:39;;;;;;;12.27;6.70;;;;;;;3.02;100.00;99236.47;4906997;29;20074;-61
2022/02/10 00:48:24;;;;;;;12.30;5.75;;;;;;;3.21;100.00;99253.94;4929058;29;20603;-58
2022/02/10 00:51:10;;;;;;;9.57;5.78;;;;;;;3.26;100.00;99247.84;4903334;29;20046;-57
2022/02/10 00:53:55;;;;;;;8.80;5.10;;;;;;;3.28;100.00;99247.84;4917028;29;20066;-56
2022/02/10 00:56:39;;;;;;;8.60;4.70;;;;;;;3.04;100.00;99240.81;4932901;29;20053;-58
2022/02/10 01:29:50;;;;;;;4.70;2.83;;;;;;;3.42;100.00;99223.38;4891476;29;20087;-58
2022/02/10 01:32:35;;;;;;;5.40;2.72;;;;;;;3.30;100.00;99189.34;4908888;29;20062;-62
2022/02/10 01:35:22;;;;;;;;;;;;;;;3.67;100.00;99224.22;4908287;29;20149;-56
2022/02/10 01:38:07;;;;;;;5.45;3.30;;;;;;;3.52;100.00;99227.72;4876694;29;20326;-56
2022/02/10 02:05:34;;;;;;;7.75;2.38;;;;;;;2.94;100.00;99214.63;5007185;28;20056;-59
2022/02/10 02:08:27;;;;;;;12.05;2.90;;;;;;;2.92;100.00;99221.59;4993807;28;20056;-55
2022/02/10 02:11:11;;;;;;;9.57;3.25;;;;;;;2.79;100.00;99217.22;4976113;28;20057;-59
2022/02/10 02:13:56;;;;;;;10.55;3.03;;;;;;;2.67;100.00;99209.34;4989073;28;20093;-58
2022/02/10 02:16:45;;;;;;;6.72;2.00;;;;;;;2.46;100.00;99206.69;4997081;28;20185;-57
2022/02/10 02:19:34;;;;;;;3.72;1.30;;;;;;;2.28;100.00;99210.13;5007399;28;20076;-58
2022/02/10 02:22:19;;;;;;;2.65;1.20;;;;;;;2.06;100.00;99161.19;4980360;28;20061;-60
2022/02/10 02:25:04;;;;;;;3.70;1.48;;;;;;;2.25;100.00;99214.47;4986067;28;20128;-58
2022/02/10 02:27:54;;;;;;;2.42;1.00;;;;;;;2.48;100.00;99212.78;4979862;28;20116;-57
2022/02/10 02:30:47;;;;;;;2.63;1.20;;;;;;;2.25;100.00;99206.63;4978353;28;20069;-56
2022/02/10 03:06:48;;;;;;;5.00;1.30;;;;;;;2.02;100.00;99155.97;4944748;29;20146;-60
2022/02/10 03:09:39;;;;;;;4.13;1.48;;;;;;;1.93;100.00;99171.63;4932776;29;20114;-55
2022/02/10 03:12:24;;;;;;;4.13;1.15;;;;;;;1.92;100.00;99170.75;4917930;29;20109;-55
2022/02/10 03:15:19;;;;;;;9.52;1.23;;;;;;;1.83;100.00;99154.16;4944978;28;20057;-62
2022/02/10 04:15:30;;;;;;;2.22;1.08;;;;;;;1.46;100.00;99095.63;4964606;28;20094;-59
2022/02/10 04:21:52;;;;;;;5.63;1.00;;;;;;;1.61;100.00;99107.88;4972586;28;20050;-57
2022/02/10 04:54:58;;;;;;;1.80;1.10;;;;;;;1.33;100.00;99077.25;4954365;28;20050;-57
2022/02/10 05:06:49;;;;;;;2.30;1.13;;;;;;;1.48;100.00;99082.56;4974870;28;20521;-62
2022/02/10 05:24:09;;;;;;;2.08;1.20;;;;;;;1.32;100.00;99032.00;4995175;28;20061;-55
2022/02/10 05:35:55;;;;;;;2.72;1.42;;;;;;;1.47;100.00;99055.59;4978221;28;20062;-62
2022/02/10 05:39:25;;;;;;;1.60;1.50;;;;;;;1.37;100.00;99072.06;4987508;28;20042;-59
2022/02/10 05:51:09;;;;;;;3.75;2.10;;;;;;;1.44;100.00;99049.47;4976013;28;20096;-53
2022/02/10 05:56:55;;;;;;;6.10;2.47;;;;;;;1.62;100.00;99046.94;4961919;28;20065;-71
2022/02/10 07:03:00;;;;;;;2.78;1.30;;;;;;;2.47;100.00;99014.84;4987706;28;20104;-66
2022/02/10 07:08:47;;;;;;;4.07;1.27;;;;;;;2.48;100.00;99008.72;4969876;28;20057;-57
2022/02/10 07:17:20;;;;;;;11.50;1.40;;;;;;;2.43;100.00;98998.28;4999599;28;20107;-62
2022/02/10 07:48:00;;;;;;;4.57;1.48;;;;;;;2.37;100.00;98947.72;4930086;29;20694;-55
2022/02/10 08:50:47;;;;;;;5.95;1.67;;;;;;;3.55;100.00;98944.72;4976747;28;20060;-56
2022/02/10 08:56:51;;;;;;;6.45;2.17;;;;;;;3.72;100.00;98949.88;4961788;28;20062;-57
2022/02/10 09:48:08;;;;;;;5.18;1.92;;;;;;;3.27;100.00;98913.41;4856493;29;20189;-60
2022/02/10 10:02:33;;;;;;;11.25;2.58;;;;;;;3.64;100.00;98913.19;4897746;29;20055;-56
2022/02/10 10:05:35;;;;;;;12.45;2.85;;;;;;;3.73;100.00;98907.03;4939542;28;20112;-54
2022/02/10 10:08:51;;;;;;;7.53;2.40;;;;;;;3.47;100.00;98893.22;4977455;28;20100;-57
2022/02/10 10:14:31;;;;;;;6.63;2.60;;;;;;;3.47;100.00;98911.56;4978220;28;20119;-59
2022/02/10 10:26:29;;;;;;;5.72;2.30;;;;;;;3.91;100.00;98910.38;4963169;28;20108;-60
2022/02/10 10:45:45;;;;;;;10.07;3.10;;;;;;;4.04;100.00;98909.41;4899774;29;20066;-59
2022/02/10 10:50:45;;;;;;;6.80;2.95;;;;;;;3.65;100.00;98912.31;4911607;29;20622;-60
2022/02/10 10:56:25;;;;;;;7.82;4.05;;;;;;;3.68;100.00;98930.63;4908530;29;20107;-61
2022/02/10 11:42:32;;;;;;;12.80;5.72;;;;;;;3.87;100.00;98934.00;4997923;28;20053;-59
2022/02/10 12:01:22;;;;;;;14.00;6.00;;;;;;;4.59;100.00;98957.03;4982204;28;20486;-63
2022/02/10 13:23:22;;;;;;;8.75;3.58;;;;;;;4.63;100.00;99001.63;4843949;29;20101;-58
2022/02/10 14:09:02;;;;;;;4.75;2.20;;;;;;;4.34;100.00;99021.09;5004283;28;20136;-56
2022/02/10 14:16:40;;;;;;;2.22;1.30;;;;;;;3.97;100.00;99023.13;4988544;28;20573;-57
2022/02/10 14:28:08;;;;;;;4.60;2.20;;;;;;;4.08;100.00;99072.88;4987256;28;20120;-55
2022/02/10 14:30:52;;;;;;;6.53;2.60;;;;;;;4.14;100.00;99081.59;4970280;28;20096;-60
2022/02/10 14:33:39;;;;;;;7.90;2.70;;;;;;;4.10;100.00;99084.22;4987448;28;20081;-56
2022/02/10 14:36:31;;;;;;;7.93;2.85;;;;;;;4.00;100.00;99075.53;4977521;28;20414;-56
2022/02/10 14:42:57;;;;;;;4.90;2.35;;;;;;;3.55;100.00;99036.44;4911366;29;20074;-56
2022/02/10 15:46:49;;;;;;;4.65;2.20;;;;;;;2.93;100.00;99132.59;4931144;29;20214;-58
2022/02/10 15:49:55;;;;;;;5.72;2.40;;;;;;;3.02;100.00;99132.59;4931208;29;20118;-57
2022/02/10 16:16:53;;;;;;;8.30;2.55;;;;;;;2.98;100.00;99106.41;4978503;28;20410;-60
2022/02/10 16:19:41;;;;;;;4.03;1.83;;;;;;;3.24;100.00;99146.56;4979670;28;20049;-60
2022/02/10 16:22:36;;;;;;;5.88;1.70;;;;;;;3.31;100.00;99161.38;4963548;28;20106;-63
2022/02/10 16:25:22;;;;;;;4.85;2.20;;;;;;;3.35;100.00;99161.38;4976043;28;20146;-64
2022/02/10 16:28:24;;;;;;;5.97;2.10;;;;;;;3.44;100.00;99158.75;4976795;28;20061;-61
2022/02/10 16:31:14;;;;;;;7.03;2.15;;;;;;;3.35;100.00;99142.16;4977466;28;20185;-60
2022/02/10 16:33:59;;;;;;;6.90;3.03;;;;;;;3.37;100.00;99154.38;4980428;28;20052;-59
2022/02/10 16:36:46;;;;;;;9.05;3.42;;;;;;;3.20;100.00;99150.03;4976207;28;20419;-61
2022/02/10 16:39:30;;;;;;;7.90;3.10;;;;;;;3.24;100.00;99154.41;4979769;28;20497;-57
2022/02/10 16:42:16;;;;;;;9.57;3.20;;;;;;;3.20;100.00;99153.53;4981538;28;20081;-62
2022/02/10 16:45:01;;;;;;;8.77;4.03;;;;;;;3.30;100.00;99163.16;4980870;28;20097;-61
2022/02/10 16:47:45;;;;;;;9.20;3.75;;;;;;;3.29;100.00;99171.84;4977259;28;20098;-65
2022/02/10 16:50:30;;;;;;;8.52;3.15;;;;;;;3.29;100.00;99165.75;4982819;28;20057;-59
2022/02/10 16:53:18;;;;;;;6.38;2.90;;;;;;;3.28;100.00;99171.88;4979000;28;20088;-63
2022/02/10 16:56:09;;;;;;;8.02;2.85;;;;;;;3.42;100.00;99167.47;4977768;28;20181;-60
2022/02/10 16:59:12;;;;;;;5.85;2.58;;;;;;;3.21;100.00;99125.59;4980624;28;20105;-60
2022/02/10 17:14:11;;;;;;;8.02;2.50;;;;;;;3.31;100.00;99140.41;4976352;28;20168;-61
2022/02/10 17:29:07;;;;;;;7.03;2.70;;;;;;;3.56;100.00;99197.19;4976673;28;20097;-59
2022/02/10 17:32:09;;;;;;;4.60;1.85;;;;;;;3.53;100.00;99189.31;4977298;28;20465;-60
2022/02/10 17:44:07;;;;;;;8.07;2.00;;;;;;;3.40;100.00;99193.69;4977980;28;20430;-60
2022/02/10 17:46:57;;;;;;;3.58;1.80;;;;;;;3.33;100.00;99188.47;4979938;28;20411;-60
2022/02/10 17:52:59;;;;;;;3.35;1.70;;;;;;;3.26;100.00;99195.44;4979026;28;20527;-62
2022/02/10 17:55:43;;;;;;;3.95;1.70;;;;;;;3.28;100.00;99196.31;4977304;28;20054;-61
2022/02/10 17:58:28;;;;;;;6.47;2.30;;;;;;;3.27;100.00;99191.94;4963505;28;20525;-60
2022/02/10 18:01:12;;;;;;;7.05;2.47;;;;;;;3.30;100.00;99196.31;4979765;28;20106;-63
2022/02/10 18:03:57;;;;;;;5.97;2.47;;;;;;;3.34;100.00;99191.09;4979458;28;20109;-60
2022/02/10 18:06:45;;;;;;;4.25;1.92;;;;;;;3.29;100.00;99195.44;4982259;28;20049;-63
2022/02/10 18:15:15;;;;;;;3.58;1.35;;;;;;;3.34;100.00;99203.31;4979101;28;20089;-63
2022/02/10 18:18:04;;;;;;;3.58;1.50;;;;;;;3.30;100.00;99191.06;4970703;28;20050;-60
2022/02/10 18:20:56;;;;;;;5.00;1.60;;;;;;;3.25;100.00;99211.16;4988130;28;20177;-64
2022/02/10 19:09:00;;;;;;;6.60;1.70;;;;;;;3.26;100.00;99219.03;4890805;29;20051;-60
2022/02/10 19:11:46;;;;;;;5.50;1.98;;;;;;;3.32;100.00;99228.63;4889304;29;20141;-62
2022/02/10 19:14:36;;;;;;;2.83;1.48;;;;;;;3.06;100.00;99184.09;4853799;29;20085;-61
2022/02/10 19:17:22;;;;;;;3.05;1.45;;;;;;;3.33;100.00;99219.91;4885213;29;20108;-66
2022/02/10 19:20:08;;;;;;;6.25;2.00;;;;;;;3.38;100.00;99226.00;4900069;29;20110;-54
2022/02/10 19:22:53;;;;;;;6.82;1.83;;;;;;;3.46;100.00;99221.63;4894877;29;20055;-61
2022/02/10 19:25:39;;;;;;;;;;;;;;;3.43;100.00;99217.28;4899144;29;20522;-64
2022/02/10 19:28:24;;;;;;;;;;;;;;;3.33;100.00;99226.00;4913160;28;20719;-55
2022/02/10 19:31:10;;;;;;;7.60;2.28;;;;;;;3.29;100.00;99231.25;4907920;29;19930;-58
2022/02/10 19:33:57;;;;;;;6.78;2.22;;;;;;;3.01;100.00;99195.44;4919763;29;20059;-59
2022/02/10 19:36:42;;;;;;;5.28;2.05;;;;;;;3.22;100.00;99239.97;4913602;29;20101;-67
2022/02/10 19:39:27;;;;;;;;;;;;;;;3.22;100.00;99230.38;4921793;29;20066;-64
2022/02/10 19:42:13;;;;;;;5.88;2.15;;;;;;;2.99;100.00;99198.06;4944766;28;19928;-63
2022/02/10 19:45:00;;;;;;;7.57;2.13;;;;;;;3.24;100.00;99235.63;4983504;28;20177;-62
2022/02/10 19:47:50;;;;;;;6.28;2.28;;;;;;;3.24;100.00;99233.84;4961168;28;20426;-64
2022/02/10 19:50:35;;;;;;;5.32;1.77;;;;;;;3.14;100.00;99210.28;4974973;28;20225;-68
2022/02/10 19:53:21;;;;;;;4.50;2.15;;;;;;;3.21;100.00;99219.91;4975112;28;20103;-62
2022/02/10 19:56:08;;;;;;;6.20;2.00;;;;;;;3.15;100.00;99226.00;4983292;28;20160;-61
2022/02/10 19:58:53;;;;;;;8.93;2.35;;;;;;;3.17;100.00;99239.09;4968338;28;20081;-64
2022/02/10 20:01:38;;;;;;;6.47;2.00;;;;;;;2.94;100.00;99198.94;4984935;28;20148;-61
2022/02/10 20:04:24;;;;;;;4.88;1.80;;;;;;;3.15;100.00;99244.34;4974570;28;20557;-63
2022/02/10 20:07:12;;;;;;;6.28;1.98;;;;;;;3.15;100.00;99239.09;4960627;28;20050;-63
2022/02/10 20:09:57;;;;;;;5.70;2.10;;;;;;;3.31;100.00;99245.22;4965977;28;20177;-62
2022/02/10 20:12:42;;;;;;;6.43;2.65;;;;;;;3.41;100.00;99244.34;4971431;28;20142;-64
2022/02/10 20:15:33;;;;;;;7.03;2.78;;;;;;;3.59;100.00;99246.94;4975163;28;21021;-61
2022/02/10 20:18:19;;;;;;;7.10;2.50;;;;;;;3.32;100.00;99242.59;4984653;28;20101;-63
2022/02/10 20:21:05;;;;;;;5.45;2.63;;;;;;;3.34;100.00;99237.34;4971218;28;20053;-63
2022/02/10 20:23:50;;;;;;;7.55;3.03;;;;;;;3.40;100.00;99247.84;4975627;28;20415;-64
2022/02/10 20:26:35;;;;;;;7.28;3.17;;;;;;;3.52;100.00;99247.84;4954796;28;20085;-65
2022/02/10 20:29:19;;;;;;;8.02;3.35;;;;;;;3.55;100.00;99246.09;4967678;28;20134;-62
2022/02/10 20:32:05;;;;;;;9.77;3.17;;;;;;;3.49;100.00;99253.09;4949971;28;20133;-63
2022/02/10 20:34:49;;;;;;;10.00;3.05;;;;;;;3.60;100.00;99253.97;4953615;28;20173;-57
2022/02/10 20:37:34;;;;;;;8.25;3.40;;;;;;;3.47;100.00;99246.94;4969031;28;20069;-59
2022/02/10 20:40:19;;;;;;;12.40;3.83;;;;;;;3.40;100.00;99251.31;4951262;28;20537;-57
2022/02/10 20:43:06;;;;;;;8.88;4.13;;;;;;;3.12;100.00;99244.31;4950911;28;20098;-59
2022/02/10 20:46:00;;;;;;;12.88;4.68;;;;;;;3.10;100.00;99234.72;4969371;28;20429;-57
2022/02/10 20:48:45;;;;;;;9.82;3.70;;;;;;;3.10;100.00;99235.63;4943016;28;20053;-57
2022/02/10 20:51:29;;;;;;;7.75;3.33;;;;;;;3.24;100.00;99249.56;4952133;28;20533;-60
2022/02/10 20:54:16;;;;;;;9.95;3.50;;;;;;;3.32;100.00;99252.22;4966099;28;20109;-55
2022/02/10 20:57:02;;;;;;;9.55;3.03;;;;;;;3.17;100.00;99236.47;4950715;28;20058;-57
2022/02/10 20:59:48;;;;;;;8.88;2.58;;;;;;;3.21;100.00;99261.81;4935398;29;20146;-55
2022/02/10 21:02:39;;;;;;;4.72;2.13;;;;;;;3.25;100.00;99255.69;4959441;28;20244;-60
2022/02/10 21:05:35;;;;;;;4.13;1.88;;;;;;;3.10;100.00;99239.97;4977115;28;20468;-63
2022/02/10 21:08:34;;;;;;;4.05;2.30;;;;;;;3.15;100.00;99256.53;4944461;28;20056;-55
2022/02/10 21:11:22;;;;;;;6.97;2.33;;;;;;;3.15;100.00;99251.31;4939546;28;20414;-53
2022/02/10 21:14:14;;;;;;;4.57;2.00;;;;;;;2.94;100.00;99220.75;4945279;28;20422;-52
2022/02/10 21:17:06;;;;;;;4.60;2.25;;;;;;;3.05;100.00;99266.13;4955401;28;20534;-53
2022/02/10 21:19:51;;;;;;;10.10;2.50;;;;;;;2.99;100.00;99260.03;4958223;28;20186;-58
2022/02/10 21:22:44;;;;;;;8.65;2.47;;;;;;;2.91;100.00;99265.25;4969371;28;20072;-53
2022/02/10 21:25:33;;;;;;;6.75;2.63;;;;;;;3.04;100.00;99255.66;4939022;28;20447;-52
2022/02/10 21:28:26;;;;;;;7.32;2.40;;;;;;;3.33;100.00;99259.19;4980619;28;20132;-55
2022/02/10 21:31:11;;;;;;;8.30;2.40;;;;;;;3.39;100.00;99262.69;4968751;28;20541;-54
2022/02/10 21:34:12;;;;;;;7.80;2.05;;;;;;;3.42;100.00;99244.34;4984927;28;20053;-58
2022/02/10 21:37:07;;;;;;;7.07;1.92;;;;;;;3.14;100.00;99203.31;4989069;28;20101;-53
2022/02/10 21:40:10;;;;;;;6.20;2.60;;;;;;;3.53;100.00;99249.59;4986360;28;20409;-55
2022/02/10 21:56:12;;;;;;;7.32;3.20;;;;;;;3.79;100.00;99235.56;4893982;29;20087;-57
2022/02/10 22:19:24;;;;;;;4.57;2.13;;;;;;;3.74;100.00;99247.81;4849431;29;20056;-57
2022/02/10 22:22:12;;;;;;;5.60;2.10;;;;;;;3.57;100.00;99223.34;4852413;29;20530;-56
2022/02/10 22:24:58;;;;;;;6.20;1.83;;;;;;;3.87;100.00;99246.91;4837433;29;20065;-55
2022/02/10 22:27:47;;;;;;;6.93;2.20;;;;;;;3.71;100.00;99246.94;4833410;29;20061;-58
2022/02/10 22:30:45;;;;;;;5.88;2.20;;;;;;;3.41;100.00;99252.22;4836489;29;20699;-54
2022/02/10 22:34:00;;;;;;;8.68;2.78;;;;;;;3.19;100.00;99258.28;4908500;29;20084;-57
2022/02/10 22:36:37;;;;;;;5.73;2.47;;;;;;;3.04;100.00;99261.78;4905667;29;20051;-52
2022/02/10 22:39:22;;;;;;;7.93;2.90;;;;;;;2.84;100.00;99250.41;4873240;29;20083;-53
2022/02/10 22:42:08;;;;;;;5.35;2.20;;;;;;;2.69;100.00;99197.16;4918105;29;20100;-57
2022/02/10 22:44:53;;;;;;;5.93;2.08;;;;;;;3.01;100.00;99253.06;4907282;29;20528;-60
2022/02/10 22:47:37;;;;;;;8.88;2.90;;;;;;;2.99;100.00;99257.41;4908689;29;20110;-54
2022/02/10 22:50:22;;;;;;;10.15;2.45;;;;;;;2.96;100.00;99237.31;4911044;29;20097;-54
2022/02/10 22:53:07;;;;;;;8.88;2.78;;;;;;;3.06;100.00;99246.06;4959450;28;20057;-57
2022/02/10 22:55:52;;;;;;;7.00;2.25;;;;;;;3.09;100.00;99243.47;4978137;28;20158;-55
2022/02/10 22:58:39;;;;;;;7.55;2.30;;;;;;;3.18;100.00;99243.47;4981854;28;20071;-56
2022/02/10 23:01:24;;;;;;;4.68;1.80;;;;;;;3.33;100.00;99244.34;4974706;28;20136;-58
2022/02/10 23:04:09;;;;;;;4.68;1.85;;;;;;;3.45;100.00;99244.31;4953875;28;20108;-61
2022/02/10 23:06:57;;;;;;;6.30;2.00;;;;;;;3.39;100.00;99246.09;4987226;28;20084;-54
2022/02/10 23:12:29;;;;;;;6.35;2.42;;;;;;;3.36;100.00;99248.72;4978852;28;20056;-57
2022/02/10 23:15:13;;;;;;;7.45;2.40;;;;;;;3.10;100.00;99198.94;4982399;28;20049;-53
2022/02/10 23:17:58;;;;;;;6.72;2.22;;;;;;;3.55;100.00;99253.06;4986685;28;20096;-63
2022/02/10 23:20:43;;;;;;;5.88;2.28;;;;;;;3.73;100.00;99258.31;4979369;28;20109;-57
2022/02/10 23:23:30;;;;;;;5.55;1.83;;;;;;;3.58;100.00;99243.47;4965264;28;20141;-53
2022/02/10 23:26:18;;;;;;;7.05;1.75;;;;;;;3.42;100.00;99219.88;4948190;28;20522;-54
2022/02/10 23:29:03;;;;;;;4.20;1.65;;;;;;;3.70;100.00;99251.31;4966635;28;20886;-59
2022/02/10 23:31:50;;;;;;;3.95;1.40;;;;;;;3.47;100.00;99218.13;4968359;28;20196;-56
2022/02/10 23:34:34;;;;;;;5.93;1.55;;;;;;;3.60;100.00;99219.88;4953144;28;20217;-54
2022/02/10 23:37:19;;;;;;;5.93;2.00;;;;;;;3.75;100.00;99254.81;4966053;28;20070;-55
2022/02/10 23:40:05;;;;;;;4.70;1.90;;;;;;;3.79;100.00;99242.56;4935116;28;20085;-54
2022/02/10 23:42:53;;;;;;;7.15;2.25;;;;;;;3.64;100.00;99192.78;4948153;28;20145;-52
2022/02/10 23:45:41;;;;;;;4.22;1.63;;;;;;;3.65;100.00;99229.47;4923785;28;20086;-53
2022/02/10 23:48:28;;;;;;;6.88;2.15;;;;;;;3.52;100.00;99195.44;4912642;29;20062;-54
2022/02/10 23:51:14;;;;;;;4.85;1.92;;;;;;;3.47;100.00;99176.19;4921444;28;20472;-63
2022/02/10 23:53:59;;;;;;;8.75;2.08;;;;;;;3.23;100.00;99191.94;4982617;28;20093;-55
2022/02/10 23:56:50;;;;;;;7.95;1.95;;;;;;;3.09;100.00;99207.66;4964203;28;20053;-52
